createdAt,value
2017-11-15T00:01:48.345Z,7.95
2017-11-15T00:04:15.814Z,8.82
2017-11-15T00:06:43.363Z,8.38
2017-11-15T00:09:10.850Z,8.80
2017-11-15T00:11:39.111Z,8.85
2017-11-15T00:14:06.580Z,8.85
2017-11-15T00:16:34.799Z,9.10
2017-11-15T00:19:02.263Z,9.32
2017-11-15T00:21:29.739Z,10.68
2017-11-15T00:23:57.358Z,9.65
2017-11-15T00:26:24.818Z,8.75
2017-11-15T00:28:52.293Z,10.88
2017-11-15T00:31:19.744Z,9.40
2017-11-15T00:33:47.222Z,9.50
2017-11-15T00:36:14.698Z,11.65
2017-11-15T00:38:42.172Z,10.75
2017-11-15T00:41:09.705Z,11.60
2017-11-15T00:43:37.149Z,9.73
2017-11-15T00:46:04.706Z,10.07
2017-11-15T00:48:32.193Z,10.38
2017-11-15T00:51:00.437Z,11.02
2017-11-15T00:53:27.881Z,10.50
2017-11-15T00:55:55.367Z,11.40
2017-11-15T00:58:22.843Z,10.15
2017-11-15T01:00:51.150Z,10.02
2017-11-15T01:03:18.609Z,10.45
2017-11-15T01:05:46.115Z,10.88
2017-11-15T01:08:13.601Z,11.12
2017-11-15T01:10:41.082Z,12.15
2017-11-15T01:13:08.585Z,10.40
2017-11-15T01:15:36.041Z,11.93
2017-11-15T01:18:04.313Z,11.60
2017-11-15T01:20:31.768Z,11.40
2017-11-15T01:22:59.229Z,10.70
2017-11-15T01:25:26.788Z,10.68
2017-11-15T01:27:54.262Z,10.80
2017-11-15T01:30:22.500Z,11.70
2017-11-15T01:32:49.969Z,9.13
2017-11-15T01:35:17.527Z,10.13
2017-11-15T01:37:45.046Z,9.18
2017-11-15T01:40:12.570Z,11.25
2017-11-15T01:42:40.811Z,10.60
2017-11-15T01:45:08.267Z,9.88
2017-11-15T01:47:35.735Z,10.13
2017-11-15T01:50:03.194Z,9.70
2017-11-15T01:52:30.758Z,8.65
2017-11-15T01:54:58.226Z,12.43
2017-11-15T01:57:26.478Z,10.40
2017-11-15T01:59:53.933Z,11.77
2017-11-15T02:02:22.164Z,11.15
2017-11-15T02:04:49.679Z,11.85
2017-11-15T02:07:17.136Z,11.48
2017-11-15T02:09:44.706Z,11.90
2017-11-15T02:12:13.020Z,12.23
2017-11-15T02:14:40.866Z,10.25
2017-11-15T02:17:08.476Z,11.43
2017-11-15T02:19:36.068Z,12.20
2017-11-15T02:22:04.430Z,11.27
2017-11-15T02:24:31.885Z,12.05
2017-11-15T02:27:00.877Z,12.68
2017-11-15T02:29:28.446Z,12.02
2017-11-15T02:31:56.768Z,13.07
2017-11-15T02:34:24.235Z,12.37
2017-11-15T02:36:51.708Z,13.57
2017-11-15T02:39:19.204Z,12.98
2017-11-15T02:41:46.662Z,12.48
2017-11-15T02:44:14.910Z,13.52
2017-11-15T02:46:42.478Z,12.10
2017-11-15T02:49:09.934Z,12.50
2017-11-15T02:51:37.427Z,11.20
2017-11-15T02:54:04.894Z,11.73
2017-11-15T02:56:32.353Z,12.40
2017-11-15T02:58:59.858Z,11.23
2017-11-15T03:01:28.132Z,13.68
2017-11-15T03:03:56.362Z,13.15
2017-11-15T03:06:23.817Z,12.23
2017-11-15T03:08:51.289Z,12.65
2017-11-15T03:11:18.776Z,12.75
2017-11-15T03:13:46.251Z,12.07
2017-11-15T03:16:14.477Z,13.50
2017-11-15T03:18:41.949Z,12.02
2017-11-15T03:21:15.479Z,12.50
2017-11-15T03:23:43.737Z,12.73
2017-11-15T03:26:11.205Z,12.48
2017-11-15T03:28:38.756Z,12.18
2017-11-15T03:31:06.230Z,12.57
2017-11-15T03:33:34.457Z,12.30
2017-11-15T03:36:01.968Z,11.85
2017-11-15T03:38:30.225Z,12.73
2017-11-15T03:40:57.695Z,12.40
2017-11-15T03:43:26.010Z,12.43
2017-11-15T03:45:53.512Z,12.20
2017-11-15T03:48:21.814Z,12.43
2017-11-15T03:50:50.054Z,11.02
2017-11-15T03:53:17.520Z,12.90
2017-11-15T03:55:45.760Z,13.50
2017-11-15T03:58:13.252Z,10.93
2017-11-15T04:00:40.718Z,13.40
2017-11-15T04:03:08.177Z,12.68
2017-11-15T04:05:35.783Z,12.75
2017-11-15T04:08:03.267Z,12.27
2017-11-15T04:10:30.731Z,11.48
2017-11-15T04:12:58.207Z,12.98
2017-11-15T04:15:25.671Z,12.25
2017-11-15T04:17:53.901Z,12.37
2017-11-15T04:20:21.393Z,12.70
2017-11-15T04:22:49.638Z,11.23
2017-11-15T04:25:17.109Z,11.50
2017-11-15T04:27:44.580Z,12.88
2017-11-15T04:30:12.819Z,11.90
2017-11-15T04:32:40.281Z,12.18
2017-11-15T04:35:07.738Z,12.25
2017-11-15T04:37:35.223Z,12.75
2017-11-15T04:40:02.694Z,11.80
2017-11-15T04:42:30.937Z,12.32
2017-11-15T04:44:58.411Z,12.32
2017-11-15T04:47:25.871Z,12.80
2017-11-15T04:49:53.346Z,11.95
2017-11-15T04:52:21.582Z,12.45
2017-11-15T04:54:49.051Z,13.48
2017-11-15T04:57:16.599Z,12.48
2017-11-15T04:59:44.072Z,12.25
2017-11-15T05:02:11.627Z,14.23
2017-11-15T05:04:39.093Z,12.50
2017-11-15T05:07:07.354Z,12.70
2017-11-15T05:09:34.915Z,12.60
2017-11-15T05:12:02.386Z,12.82
2017-11-15T05:14:29.851Z,12.68
2017-11-15T05:16:58.078Z,13.60
2017-11-15T05:19:25.562Z,11.40
2017-11-15T05:21:53.795Z,13.85
2017-11-15T05:24:21.288Z,11.63
2017-11-15T05:26:48.755Z,11.98
2017-11-15T05:29:16.236Z,13.70
2017-11-15T05:31:44.477Z,14.75
2017-11-15T05:34:11.947Z,12.50
2017-11-15T05:36:40.921Z,12.05
2017-11-15T05:39:08.382Z,14.73
2017-11-15T05:41:36.002Z,12.50
2017-11-15T05:44:03.479Z,13.35
2017-11-15T05:46:30.941Z,12.60
2017-11-15T05:48:58.409Z,13.13
2017-11-15T05:51:25.929Z,13.90
2017-11-15T05:53:53.391Z,12.75
2017-11-15T05:56:20.887Z,14.07
2017-11-15T05:58:48.351Z,12.98
2017-11-15T06:01:15.810Z,13.50
2017-11-15T06:03:44.058Z,11.80
2017-11-15T06:06:11.525Z,12.57
2017-11-15T06:08:39.016Z,13.52
2017-11-15T06:11:07.398Z,12.70
2017-11-15T06:13:35.534Z,15.57
2017-11-15T06:16:07.931Z,14.45
2017-11-15T06:18:35.477Z,13.05
2017-11-15T06:21:03.162Z,13.38
2017-11-15T06:23:30.620Z,14.18
2017-11-15T06:25:58.157Z,14.63
2017-11-15T06:28:25.606Z,13.95
2017-11-15T06:30:53.271Z,15.75
2017-11-15T06:33:20.847Z,15.23
2017-11-15T06:35:49.018Z,13.93
2017-11-15T06:38:16.512Z,15.40
2017-11-15T06:40:44.071Z,14.25
2017-11-15T06:43:11.532Z,15.15
2017-11-15T06:45:38.997Z,15.23
2017-11-15T06:48:06.454Z,15.40
2017-11-15T06:50:33.926Z,14.43
2017-11-15T06:53:01.385Z,14.20
2017-11-15T06:55:28.966Z,14.82
2017-11-15T06:57:56.448Z,13.93
2017-11-15T07:00:23.925Z,14.02
2017-11-15T07:02:51.396Z,15.13
2017-11-15T07:05:18.888Z,15.23
2017-11-15T07:07:46.346Z,16.37
2017-11-15T07:10:13.820Z,15.18
2017-11-15T07:12:42.045Z,16.35
2017-11-15T07:15:09.535Z,15.32
2017-11-15T07:17:37.008Z,14.63
2017-11-15T07:20:05.273Z,15.02
2017-11-15T07:22:32.750Z,15.30
2017-11-15T07:25:01.125Z,14.18
2017-11-15T07:27:29.347Z,15.63
2017-11-15T07:29:56.846Z,15.18
2017-11-15T07:32:25.113Z,13.80
2017-11-15T07:34:52.572Z,13.48
2017-11-15T07:37:20.035Z,14.30
2017-11-15T07:39:48.260Z,14.95
2017-11-15T07:42:15.723Z,13.23
2017-11-15T07:44:43.187Z,13.73
2017-11-15T07:47:10.667Z,15.75
2017-11-15T07:49:38.127Z,14.18
2017-11-15T07:52:05.605Z,15.65
2017-11-15T07:54:33.836Z,14.93
2017-11-15T07:57:01.435Z,14.15
2017-11-15T07:59:29.795Z,18.52
2017-11-15T08:01:57.271Z,16.87
2017-11-15T08:04:25.499Z,15.48
2017-11-15T08:06:52.983Z,13.70
2017-11-15T08:09:20.451Z,16.98
2017-11-15T08:11:47.921Z,13.95
2017-11-15T08:14:16.150Z,16.12
2017-11-15T08:16:43.602Z,13.82
2017-11-15T08:19:11.177Z,14.13
2017-11-15T08:21:38.658Z,14.65
2017-11-15T08:24:06.916Z,13.75
2017-11-15T08:26:34.388Z,12.60
2017-11-15T08:29:02.651Z,14.77
2017-11-15T08:31:30.115Z,13.62
2017-11-15T08:33:58.367Z,13.68
2017-11-15T08:36:25.943Z,13.20
2017-11-15T08:38:53.498Z,13.75
2017-11-15T08:41:21.053Z,13.50
2017-11-15T08:43:48.547Z,13.40
2017-11-15T08:46:16.079Z,13.43
2017-11-15T08:48:43.544Z,13.15
2017-11-15T08:51:11.789Z,12.57
2017-11-15T08:53:39.247Z,11.60
2017-11-15T08:56:06.834Z,12.23
2017-11-15T08:58:35.149Z,10.80
2017-11-15T09:01:02.628Z,12.65
2017-11-15T09:03:30.099Z,11.60
2017-11-15T09:05:57.679Z,12.20
2017-11-15T09:08:25.158Z,11.30
2017-11-15T09:10:53.391Z,10.57
2017-11-15T09:13:20.890Z,11.40
2017-11-15T09:15:48.355Z,11.10
2017-11-15T09:18:15.870Z,10.35
2017-11-15T09:20:43.343Z,11.45
2017-11-15T09:23:10.887Z,10.68
2017-11-15T09:25:38.342Z,10.50
2017-11-15T09:28:05.815Z,11.38
2017-11-15T09:30:34.051Z,10.50
2017-11-15T09:33:01.538Z,11.45
2017-11-15T09:35:29.005Z,11.35
2017-11-15T09:37:57.242Z,11.82
2017-11-15T09:40:24.714Z,11.70
2017-11-15T09:42:52.231Z,11.45
2017-11-15T09:45:19.693Z,11.12
2017-11-15T09:47:47.156Z,12.55
2017-11-15T09:50:14.630Z,12.02
2017-11-15T09:52:42.207Z,10.98
2017-11-15T09:55:09.665Z,11.65
2017-11-15T09:57:37.158Z,12.10
2017-11-15T10:00:04.695Z,12.30
2017-11-15T10:02:32.928Z,11.57
2017-11-15T10:05:00.394Z,12.05
2017-11-15T10:07:27.883Z,11.55
2017-11-15T10:09:55.355Z,12.15
2017-11-15T10:12:23.585Z,10.60
2017-11-15T10:14:51.058Z,11.18
2017-11-15T10:17:18.522Z,12.02
2017-11-15T10:19:45.998Z,10.93
2017-11-15T10:22:14.235Z,12.77
2017-11-15T10:24:41.802Z,11.57
2017-11-15T10:27:09.363Z,12.20
2017-11-15T10:29:37.285Z,11.23
2017-11-15T10:32:04.858Z,10.40
2017-11-15T10:34:32.345Z,10.98
2017-11-15T10:36:59.836Z,12.02
2017-11-15T10:39:27.407Z,12.70
2017-11-15T10:41:54.933Z,10.93
2017-11-15T10:44:23.200Z,12.10
2017-11-15T10:46:50.791Z,12.98
2017-11-15T10:49:18.324Z,13.13
2017-11-15T10:51:45.876Z,11.45
2017-11-15T10:54:13.423Z,11.80
2017-11-15T10:56:40.910Z,11.00
2017-11-15T10:59:09.152Z,12.35
2017-11-15T11:01:37.419Z,11.40
2017-11-15T11:04:04.887Z,11.43
2017-11-15T11:06:32.441Z,10.57
2017-11-15T11:08:59.919Z,11.30
2017-11-15T11:11:27.462Z,11.23
2017-11-15T11:13:54.979Z,10.82
2017-11-15T11:16:22.510Z,10.77
2017-11-15T11:18:50.798Z,10.93
2017-11-15T11:21:18.290Z,10.82
2017-11-15T11:23:45.776Z,10.98
2017-11-15T11:26:13.339Z,11.57
2017-11-15T11:28:40.899Z,12.25
2017-11-15T11:31:09.208Z,10.98
2017-11-15T11:33:36.709Z,10.50
2017-11-15T11:36:04.977Z,10.38
2017-11-15T11:38:32.526Z,11.32
2017-11-15T11:41:00.588Z,9.90
2017-11-15T11:43:28.486Z,10.38
2017-11-15T11:45:55.950Z,11.32
2017-11-15T11:48:23.472Z,10.50
2017-11-15T11:50:50.930Z,10.05
2017-11-15T11:53:18.483Z,11.55
2017-11-15T11:55:45.954Z,10.82
2017-11-15T11:58:13.427Z,9.20
2017-11-15T12:00:40.895Z,9.13
2017-11-15T12:03:08.415Z,9.40
2017-11-15T12:05:35.970Z,9.15
2017-11-15T12:08:03.432Z,10.45
2017-11-15T12:10:30.900Z,9.45
2017-11-15T12:12:58.359Z,9.00
2017-11-15T12:15:25.822Z,9.48
2017-11-15T12:17:53.296Z,8.32
2017-11-15T12:20:20.788Z,10.10
2017-11-15T12:22:48.244Z,8.65
2017-11-15T12:25:15.712Z,8.95
2017-11-15T12:27:43.173Z,8.45
2017-11-15T12:30:10.782Z,8.52
2017-11-15T12:32:39.749Z,8.85
2017-11-15T12:35:07.291Z,7.78
2017-11-15T12:37:34.803Z,8.45
2017-11-15T12:40:02.302Z,8.30
2017-11-15T12:42:29.815Z,8.20
2017-11-15T12:44:58.056Z,7.95
2017-11-15T12:47:25.531Z,8.68
2017-11-15T12:49:52.994Z,8.80
2017-11-15T12:52:20.488Z,8.20
2017-11-15T12:54:47.954Z,7.82
2017-11-15T12:57:15.461Z,8.68
2017-11-15T12:59:43.031Z,8.55
2017-11-15T13:02:10.496Z,8.95
2017-11-15T13:04:37.958Z,8.45
2017-11-15T13:07:06.200Z,9.05
2017-11-15T13:09:33.663Z,8.10
2017-11-15T13:12:01.130Z,8.07
2017-11-15T13:14:28.640Z,8.02
2017-11-15T13:16:56.111Z,7.70
2017-11-15T13:19:23.598Z,8.15
2017-11-15T13:21:51.154Z,7.65
2017-11-15T13:24:18.615Z,7.72
2017-11-15T13:26:46.083Z,7.87
2017-11-15T13:29:13.547Z,7.65
2017-11-15T13:31:41.779Z,7.40
2017-11-15T13:34:09.317Z,8.02
2017-11-15T13:36:36.934Z,8.52
2017-11-15T13:39:05.181Z,8.10
2017-11-15T13:41:32.652Z,9.40
2017-11-15T13:44:00.224Z,8.60
2017-11-15T13:46:28.459Z,8.57
2017-11-15T13:48:55.969Z,7.87
2017-11-15T13:51:24.203Z,7.95
2017-11-15T13:53:51.742Z,8.80
2017-11-15T13:56:19.248Z,8.70
2017-11-15T13:58:46.759Z,8.35
2017-11-15T14:01:14.236Z,8.30
2017-11-15T14:03:41.707Z,7.80
2017-11-15T14:06:09.175Z,8.50
2017-11-15T14:08:36.721Z,8.90
2017-11-15T14:11:04.179Z,7.72
2017-11-15T14:13:31.684Z,8.25
2017-11-15T14:15:59.164Z,7.55
2017-11-15T14:18:26.650Z,7.55
2017-11-15T14:20:54.130Z,7.85
2017-11-15T14:23:22.358Z,8.15
2017-11-15T14:25:49.830Z,7.22
2017-11-15T14:28:17.298Z,7.45
2017-11-15T14:30:44.765Z,8.43
2017-11-15T14:33:12.229Z,7.32
2017-11-15T14:35:40.462Z,8.20
2017-11-15T14:38:08.043Z,8.38
2017-11-15T14:40:35.522Z,8.07
2017-11-15T14:43:03.773Z,7.82
2017-11-15T14:45:31.276Z,8.65
2017-11-15T14:47:58.823Z,7.82
2017-11-15T14:50:27.052Z,8.77
2017-11-15T14:52:54.627Z,9.23
2017-11-15T14:55:22.186Z,9.27
2017-11-15T14:57:49.675Z,7.35
2017-11-15T15:00:17.153Z,8.10
2017-11-15T15:02:44.663Z,9.50
2017-11-15T15:05:12.938Z,8.63
2017-11-15T15:07:40.509Z,7.50
2017-11-15T15:10:08.750Z,9.25
2017-11-15T15:12:36.327Z,12.20
2017-11-15T15:15:03.794Z,8.50
2017-11-15T15:17:31.347Z,8.75
2017-11-15T15:19:58.802Z,8.38
2017-11-15T15:22:26.275Z,8.40
2017-11-15T15:24:54.617Z,8.23
2017-11-15T15:27:22.202Z,9.27
2017-11-15T15:29:49.767Z,8.27
2017-11-15T15:32:18.078Z,9.07
2017-11-15T15:34:45.969Z,8.55
2017-11-15T15:37:13.545Z,8.68
2017-11-15T15:39:41.337Z,7.07
2017-11-15T15:42:09.798Z,8.00
2017-11-15T15:44:37.665Z,10.15
2017-11-15T15:47:05.261Z,9.38
2017-11-15T15:49:32.834Z,9.15
2017-11-15T15:52:00.390Z,9.02
2017-11-15T15:54:28.790Z,8.50
2017-11-15T15:56:56.761Z,9.15
2017-11-15T15:59:24.385Z,8.98
2017-11-15T16:01:51.907Z,9.25
2017-11-15T16:04:19.387Z,9.07
2017-11-15T16:06:47.626Z,9.15
2017-11-15T16:09:15.127Z,7.95
2017-11-15T16:11:42.664Z,9.63
2017-11-15T16:14:10.243Z,8.52
2017-11-15T16:16:38.504Z,8.55
2017-11-15T16:19:06.820Z,11.20
2017-11-15T16:21:34.405Z,9.57
2017-11-15T16:24:02.025Z,8.85
2017-11-15T16:26:29.608Z,8.95
2017-11-15T16:28:57.138Z,8.05
2017-11-15T16:31:24.654Z,11.07
2017-11-15T16:33:52.133Z,9.07
2017-11-15T16:36:20.425Z,9.65
2017-11-15T16:38:48.685Z,10.00
2017-11-15T16:41:16.977Z,9.77
2017-11-15T16:43:45.196Z,9.57
2017-11-15T16:46:12.665Z,8.90
2017-11-15T16:48:40.142Z,8.95
2017-11-15T16:51:08.372Z,10.88
2017-11-15T16:53:35.862Z,10.40
2017-11-15T16:56:03.337Z,9.27
2017-11-15T16:58:31.595Z,11.23
2017-11-15T17:00:59.159Z,9.95
2017-11-15T17:03:26.644Z,9.90
2017-11-15T17:05:57.131Z,10.98
2017-11-15T17:08:24.603Z,11.63
2017-11-15T17:10:52.079Z,11.80
2017-11-15T17:13:20.316Z,11.32
2017-11-15T17:15:47.794Z,12.98
2017-11-15T17:18:15.342Z,11.70
2017-11-15T17:20:42.935Z,13.18
2017-11-15T17:23:11.176Z,11.48
2017-11-15T17:25:38.641Z,12.00
2017-11-15T17:28:06.122Z,12.10
2017-11-15T17:30:34.367Z,13.00
2017-11-15T17:33:01.872Z,11.43
2017-11-15T17:35:29.347Z,12.05
2017-11-15T17:37:56.828Z,12.48
2017-11-15T17:40:24.287Z,11.68
2017-11-15T17:42:51.862Z,12.05
2017-11-15T17:45:19.422Z,13.35
2017-11-15T17:47:46.909Z,12.30
2017-11-15T17:50:14.371Z,13.23
2017-11-15T17:52:41.886Z,11.57
2017-11-15T17:55:09.370Z,12.10
2017-11-15T17:57:37.610Z,12.13
2017-11-15T18:00:05.084Z,11.90
2017-11-15T18:02:32.634Z,13.68
2017-11-15T18:05:00.111Z,11.95
2017-11-15T18:07:28.353Z,12.30
2017-11-15T18:09:55.828Z,12.05
2017-11-15T18:12:23.286Z,13.25
2017-11-15T18:14:50.763Z,12.88
2017-11-15T18:17:19.006Z,13.05
2017-11-15T18:19:46.474Z,12.80
2017-11-15T18:22:14.027Z,11.77
2017-11-15T18:24:42.286Z,12.75
2017-11-15T18:27:09.866Z,12.82
2017-11-15T18:29:37.413Z,11.75
2017-11-15T18:32:04.907Z,12.85
2017-11-15T18:34:33.141Z,12.65
2017-11-15T18:37:00.621Z,12.90
2017-11-15T18:39:28.882Z,12.37
2017-11-15T18:41:56.402Z,12.98
2017-11-15T18:44:23.910Z,12.93
2017-11-15T18:46:52.183Z,13.52
2017-11-15T18:49:19.736Z,13.35
2017-11-15T18:51:47.243Z,12.52
2017-11-15T18:54:14.721Z,13.30
2017-11-15T18:56:42.194Z,14.18
2017-11-15T18:59:09.666Z,13.73
2017-11-15T19:01:37.197Z,13.75
2017-11-15T19:04:04.661Z,13.75
2017-11-15T19:06:32.126Z,13.95
2017-11-15T19:08:59.671Z,13.27
2017-11-15T19:11:27.292Z,16.08
2017-11-15T19:13:54.810Z,15.85
2017-11-15T19:16:22.366Z,14.73
2017-11-15T19:18:49.917Z,14.55
2017-11-15T19:21:17.380Z,13.95
2017-11-15T19:23:44.867Z,13.93
2017-11-15T19:26:13.109Z,13.48
2017-11-15T19:28:40.576Z,12.82
2017-11-15T19:31:08.124Z,15.63
2017-11-15T19:33:35.612Z,15.27
2017-11-15T19:36:03.871Z,17.02
2017-11-15T19:38:31.338Z,15.20
2017-11-15T19:40:59.570Z,15.10
2017-11-15T19:43:27.054Z,15.30
2017-11-15T19:45:54.627Z,14.77
2017-11-15T19:48:22.852Z,16.10
2017-11-15T19:50:50.339Z,15.55
2017-11-15T19:53:17.814Z,15.18
2017-11-15T19:55:46.049Z,15.00
2017-11-15T19:58:13.586Z,14.80
2017-11-15T20:00:41.051Z,15.75
2017-11-15T20:03:08.510Z,15.05
2017-11-15T20:05:35.990Z,15.32
2017-11-15T20:08:03.456Z,15.65
2017-11-15T20:10:30.935Z,15.50
2017-11-15T20:12:59.178Z,14.85
2017-11-15T20:15:26.686Z,16.87
2017-11-15T20:17:54.204Z,16.67
2017-11-15T20:20:22.434Z,15.75
2017-11-15T20:22:49.947Z,15.20
2017-11-15T20:25:17.410Z,16.80
2017-11-15T20:27:45.655Z,15.68
2017-11-15T20:30:13.561Z,15.30
2017-11-15T20:32:41.355Z,15.82
2017-11-15T20:35:08.826Z,14.95
2017-11-15T20:37:36.293Z,16.60
2017-11-15T20:40:03.973Z,17.17
2017-11-15T20:42:32.255Z,17.08
2017-11-15T20:44:59.723Z,15.13
2017-11-15T20:47:27.970Z,16.12
2017-11-15T20:49:55.598Z,16.37
2017-11-15T20:52:23.209Z,15.57
2017-11-15T20:54:50.909Z,15.93
2017-11-15T20:57:18.402Z,17.55
2017-11-15T20:59:45.945Z,15.40
2017-11-15T21:02:13.528Z,16.50
2017-11-15T21:04:41.840Z,15.55
2017-11-15T21:07:10.079Z,15.90
2017-11-15T21:09:37.610Z,15.93
2017-11-15T21:12:05.473Z,15.50
2017-11-15T21:14:33.005Z,15.00
2017-11-15T21:17:00.693Z,15.90
2017-11-15T21:19:29.152Z,17.08
2017-11-15T21:21:56.612Z,15.80
2017-11-15T21:24:24.100Z,15.60
2017-11-15T21:26:51.748Z,15.48
2017-11-15T21:29:19.254Z,15.82
2017-11-15T21:31:46.714Z,16.17
2017-11-15T21:34:14.974Z,16.42
2017-11-15T21:36:42.458Z,16.17
2017-11-15T21:39:10.698Z,17.40
2017-11-15T21:41:38.180Z,18.75
2017-11-15T21:44:06.492Z,16.62
2017-11-15T21:46:33.966Z,19.20
2017-11-15T21:49:01.434Z,17.75
2017-11-15T21:51:28.905Z,16.83
2017-11-15T21:53:56.478Z,17.12
2017-11-15T21:56:23.945Z,18.75
2017-11-15T21:58:52.179Z,17.30
2017-11-15T22:01:19.660Z,18.55
2017-11-15T22:03:47.227Z,17.00
2017-11-15T22:06:14.735Z,16.90
2017-11-15T22:08:42.219Z,18.20
2017-11-15T22:11:09.698Z,15.35
2017-11-15T22:13:37.170Z,17.48
2017-11-15T22:16:05.426Z,15.90
2017-11-15T22:18:32.898Z,18.50
2017-11-15T22:21:01.148Z,19.02
2017-11-15T22:23:28.699Z,19.73
2017-11-15T22:25:56.187Z,17.98
2017-11-15T22:28:24.458Z,18.67
2017-11-15T22:30:52.700Z,18.42
2017-11-15T22:33:20.203Z,16.42
2017-11-15T22:35:48.453Z,17.25
2017-11-15T22:38:15.929Z,18.98
2017-11-15T22:40:44.191Z,18.08
2017-11-15T22:43:11.661Z,19.35
2017-11-15T22:45:39.993Z,15.40
2017-11-15T22:48:07.463Z,18.17
2017-11-15T22:50:35.051Z,18.40
2017-11-15T22:53:03.321Z,17.17
2017-11-15T22:55:30.880Z,18.35
2017-11-15T22:57:59.165Z,17.98
2017-11-15T23:00:27.439Z,14.85
2017-11-15T23:02:55.691Z,16.33
2017-11-15T23:05:23.173Z,16.60
2017-11-15T23:07:50.718Z,15.48
2017-11-15T23:10:18.197Z,17.98
2017-11-15T23:12:46.448Z,17.60
2017-11-15T23:15:13.923Z,17.58
2017-11-15T23:17:42.165Z,18.45
2017-11-15T23:20:09.650Z,18.17
2017-11-15T23:22:37.901Z,16.87
2017-11-15T23:25:05.372Z,17.98
2017-11-15T23:27:32.834Z,18.20
2017-11-15T23:30:00.302Z,16.83
2017-11-15T23:32:28.563Z,17.55
2017-11-15T23:34:56.117Z,17.50
2017-11-15T23:37:23.682Z,16.48
2017-11-15T23:39:51.238Z,18.20
2017-11-15T23:42:18.706Z,18.08
2017-11-15T23:44:47.070Z,17.60
2017-11-15T23:47:14.621Z,16.42
2017-11-15T23:49:42.111Z,20.15
2017-11-15T23:52:10.353Z,19.02
2017-11-15T23:54:37.918Z,19.02
2017-11-15T23:57:05.398Z,19.58
2017-11-15T23:59:33.649Z,18.42
